sensor_id;sensor_type;location;lat;lon;timestamp;P1;durP1;ratioP1;P2;durP2;ratioP2
28447;SDS011;15675;52.870;-1.416;2023-05-10T00:01:32;21.15;;;5.68;;
28447;SDS011;15675;52.870;-1.416;2023-05-10T00:03:58;20.88;;;7.13;;
28447;SDS011;15675;52.870;-1.416;2023-05-10T00:06:24;18.90;;;5.55;;
28447;SDS011;15675;52.870;-1.416;2023-05-10T00:08:49;24.35;;;6.07;;
28447;SDS011;15675;52.870;-1.416;2023-05-10T00:11:15;17.25;;;5.95;;
28447;SDS011;15675;52.870;-1.416;2023-05-10T00:13:41;25.80;;;6.95;;
28447;SDS011;15675;52.870;-1.416;2023-05-10T00:16:07;15.63;;;5.65;;
28447;SDS011;15675;52.870;-1.416;2023-05-10T00:18:33;31.55;;;6.78;;
28447;SDS011;15675;52.870;-1.416;2023-05-10T00:20:59;22.02;;;5.72;;
28447;SDS011;15675;52.870;-1.416;2023-05-10T00:23:25;16.80;;;5.53;;
28447;SDS011;15675;52.870;-1.416;2023-05-10T00:25:51;21.88;;;5.93;;
28447;SDS011;15675;52.870;-1.416;2023-05-10T00:28:16;19.70;;;5.75;;
28447;SDS011;15675;52.870;-1.416;2023-05-10T00:30:42;15.95;;;5.82;;
28447;SDS011;15675;52.870;-1.416;2023-05-10T00:33:08;17.55;;;6.38;;
28447;SDS011;15675;52.870;-1.416;2023-05-10T00:35:34;26.88;;;6.25;;
28447;SDS011;15675;52.870;-1.416;2023-05-10T00:38:01;19.13;;;6.03;;
28447;SDS011;15675;52.870;-1.416;2023-05-10T00:40:27;14.88;;;5.72;;
28447;SDS011;15675;52.870;-1.416;2023-05-10T00:42:53;16.70;;;5.32;;
28447;SDS011;15675;52.870;-1.416;2023-05-10T00:45:19;27.08;;;6.65;;
28447;SDS011;15675;52.870;-1.416;2023-05-10T00:47:45;18.45;;;6.18;;
28447;SDS011;15675;52.870;-1.416;2023-05-10T00:50:11;21.40;;;6.80;;
28447;SDS011;15675;52.870;-1.416;2023-05-10T00:52:38;20.08;;;6.07;;
28447;SDS011;15675;52.870;-1.416;2023-05-10T00:55:04;20.48;;;6.10;;
28447;SDS011;15675;52.870;-1.416;2023-05-10T00:57:31;19.17;;;5.40;;
28447;SDS011;15675;52.870;-1.416;2023-05-10T00:59:57;16.77;;;5.35;;
28447;SDS011;15675;52.870;-1.416;2023-05-10T01:02:24;21.92;;;6.68;;
28447;SDS011;15675;52.870;-1.416;2023-05-10T01:04:50;21.58;;;6.38;;
28447;SDS011;15675;52.870;-1.416;2023-05-10T01:07:17;16.00;;;6.10;;
28447;SDS011;15675;52.870;-1.416;2023-05-10T01:09:43;17.40;;;6.25;;
28447;SDS011;15675;52.870;-1.416;2023-05-10T01:12:08;20.00;;;5.50;;
28447;SDS011;15675;52.870;-1.416;2023-05-10T01:14:34;24.42;;;6.13;;
28447;SDS011;15675;52.870;-1.416;2023-05-10T01:17:01;24.23;;;7.28;;
28447;SDS011;15675;52.870;-1.416;2023-05-10T01:19:28;22.00;;;6.47;;
28447;SDS011;15675;52.870;-1.416;2023-05-10T01:25:06;25.13;;;5.90;;
28447;SDS011;15675;52.870;-1.416;2023-05-10T01:33:48;21.83;;;6.45;;
28447;SDS011;15675;52.870;-1.416;2023-05-10T01:36:24;27.90;;;6.78;;
28447;SDS011;15675;52.870;-1.416;2023-05-10T01:42:10;24.75;;;7.32;;
28447;SDS011;15675;52.870;-1.416;2023-05-10T01:44:42;28.83;;;7.68;;
28447;SDS011;15675;52.870;-1.416;2023-05-10T01:47:24;21.17;;;7.72;;
28447;SDS011;15675;52.870;-1.416;2023-05-10T01:50:04;25.77;;;6.93;;
28447;SDS011;15675;52.870;-1.416;2023-05-10T01:52:36;21.85;;;7.40;;
28447;SDS011;15675;52.870;-1.416;2023-05-10T01:55:07;21.40;;;6.83;;
28447;SDS011;15675;52.870;-1.416;2023-05-10T01:57:36;17.92;;;7.07;;
28447;SDS011;15675;52.870;-1.416;2023-05-10T02:00:06;34.45;;;8.70;;
28447;SDS011;15675;52.870;-1.416;2023-05-10T02:02:37;31.17;;;8.85;;
28447;SDS011;15675;52.870;-1.416;2023-05-10T02:05:05;23.60;;;7.38;;
28447;SDS011;15675;52.870;-1.416;2023-05-10T02:07:34;25.00;;;7.45;;
28447;SDS011;15675;52.870;-1.416;2023-05-10T02:10:01;23.48;;;8.38;;
28447;SDS011;15675;52.870;-1.416;2023-05-10T02:12:29;18.88;;;7.55;;
28447;SDS011;15675;52.870;-1.416;2023-05-10T02:14:57;27.23;;;8.98;;
28447;SDS011;15675;52.870;-1.416;2023-05-10T02:17:27;28.30;;;8.27;;
28447;SDS011;15675;52.870;-1.416;2023-05-10T02:19:55;28.25;;;8.18;;
28447;SDS011;15675;52.870;-1.416;2023-05-10T02:22:22;28.52;;;8.43;;
28447;SDS011;15675;52.870;-1.416;2023-05-10T02:24:49;28.45;;;8.50;;
28447;SDS011;15675;52.870;-1.416;2023-05-10T02:27:16;29.27;;;9.68;;
28447;SDS011;15675;52.870;-1.416;2023-05-10T02:29:45;23.63;;;8.50;;
28447;SDS011;15675;52.870;-1.416;2023-05-10T02:32:12;32.28;;;9.85;;
28447;SDS011;15675;52.870;-1.416;2023-05-10T02:34:40;25.30;;;9.20;;
28447;SDS011;15675;52.870;-1.416;2023-05-10T02:37:07;28.05;;;8.73;;
28447;SDS011;15675;52.870;-1.416;2023-05-10T02:39:33;21.50;;;8.40;;
28447;SDS011;15675;52.870;-1.416;2023-05-10T02:42:00;23.02;;;8.93;;
28447;SDS011;15675;52.870;-1.416;2023-05-10T02:44:27;30.10;;;9.13;;
28447;SDS011;15675;52.870;-1.416;2023-05-10T02:46:56;28.20;;;8.80;;
28447;SDS011;15675;52.870;-1.416;2023-05-10T02:49:24;28.60;;;9.15;;
28447;SDS011;15675;52.870;-1.416;2023-05-10T02:51:52;27.33;;;8.93;;
28447;SDS011;15675;52.870;-1.416;2023-05-10T02:54:24;31.48;;;9.38;;
28447;SDS011;15675;52.870;-1.416;2023-05-10T02:56:56;29.40;;;8.63;;
28447;SDS011;15675;52.870;-1.416;2023-05-10T02:59:24;27.35;;;8.63;;
28447;SDS011;15675;52.870;-1.416;2023-05-10T03:01:50;33.60;;;8.50;;
28447;SDS011;15675;52.870;-1.416;2023-05-10T03:04:16;28.40;;;9.63;;
28447;SDS011;15675;52.870;-1.416;2023-05-10T03:06:42;20.67;;;8.82;;
28447;SDS011;15675;52.870;-1.416;2023-05-10T03:09:08;28.25;;;9.23;;
28447;SDS011;15675;52.870;-1.416;2023-05-10T03:14:42;35.22;;;9.38;;
28447;SDS011;15675;52.870;-1.416;2023-05-10T03:20:29;27.23;;;9.70;;
28447;SDS011;15675;52.870;-1.416;2023-05-10T03:23:04;30.58;;;9.82;;
28447;SDS011;15675;52.870;-1.416;2023-05-10T03:25:37;28.65;;;9.88;;
28447;SDS011;15675;52.870;-1.416;2023-05-10T03:28:05;38.30;;;10.52;;
28447;SDS011;15675;52.870;-1.416;2023-05-10T03:30:31;34.65;;;10.23;;
28447;SDS011;15675;52.870;-1.416;2023-05-10T03:33:03;30.67;;;10.70;;
28447;SDS011;15675;52.870;-1.416;2023-05-10T03:35:31;32.35;;;10.65;;
28447;SDS011;15675;52.870;-1.416;2023-05-10T03:37:57;31.45;;;10.30;;
28447;SDS011;15675;52.870;-1.416;2023-05-10T03:40:23;29.88;;;10.32;;
28447;SDS011;15675;52.870;-1.416;2023-05-10T03:42:50;35.17;;;11.50;;
28447;SDS011;15675;52.870;-1.416;2023-05-10T03:45:16;29.00;;;10.60;;
28447;SDS011;15675;52.870;-1.416;2023-05-10T03:47:42;32.45;;;11.18;;
28447;SDS011;15675;52.870;-1.416;2023-05-10T03:50:08;36.90;;;11.75;;
28447;SDS011;15675;52.870;-1.416;2023-05-10T03:52:35;36.00;;;11.90;;
28447;SDS011;15675;52.870;-1.416;2023-05-10T03:55:01;30.50;;;11.23;;
28447;SDS011;15675;52.870;-1.416;2023-05-10T03:57:28;29.05;;;10.23;;
28447;SDS011;15675;52.870;-1.416;2023-05-10T03:59:54;37.17;;;11.80;;
28447;SDS011;15675;52.870;-1.416;2023-05-10T04:02:20;38.53;;;11.52;;
28447;SDS011;15675;52.870;-1.416;2023-05-10T04:04:46;34.30;;;10.13;;
28447;SDS011;15675;52.870;-1.416;2023-05-10T04:07:13;40.50;;;12.20;;
28447;SDS011;15675;52.870;-1.416;2023-05-10T04:09:39;34.13;;;11.07;;
28447;SDS011;15675;52.870;-1.416;2023-05-10T04:12:06;27.30;;;10.60;;
28447;SDS011;15675;52.870;-1.416;2023-05-10T04:14:32;24.98;;;10.48;;
28447;SDS011;15675;52.870;-1.416;2023-05-10T04:16:57;35.92;;;10.45;;
28447;SDS011;15675;52.870;-1.416;2023-05-10T04:19:23;31.63;;;11.18;;
28447;SDS011;15675;52.870;-1.416;2023-05-10T04:21:49;33.97;;;11.15;;
28447;SDS011;15675;52.870;-1.416;2023-05-10T04:24:15;25.40;;;9.45;;
28447;SDS011;15675;52.870;-1.416;2023-05-10T04:26:41;26.48;;;9.50;;
28447;SDS011;15675;52.870;-1.416;2023-05-10T04:29:07;32.33;;;10.23;;
28447;SDS011;15675;52.870;-1.416;2023-05-10T04:31:33;28.33;;;9.73;;
28447;SDS011;15675;52.870;-1.416;2023-05-10T04:33:59;28.92;;;10.45;;
28447;SDS011;15675;52.870;-1.416;2023-05-10T04:36:25;29.33;;;9.98;;
28447;SDS011;15675;52.870;-1.416;2023-05-10T04:38:51;28.88;;;10.32;;
28447;SDS011;15675;52.870;-1.416;2023-05-10T04:41:17;25.85;;;10.02;;
28447;SDS011;15675;52.870;-1.416;2023-05-10T04:43:43;29.23;;;10.40;;
28447;SDS011;15675;52.870;-1.416;2023-05-10T04:46:09;28.30;;;10.50;;
28447;SDS011;15675;52.870;-1.416;2023-05-10T04:48:35;25.92;;;10.35;;
28447;SDS011;15675;52.870;-1.416;2023-05-10T04:51:00;31.38;;;9.75;;
28447;SDS011;15675;52.870;-1.416;2023-05-10T04:53:28;31.55;;;10.07;;
28447;SDS011;15675;52.870;-1.416;2023-05-10T04:55:55;29.70;;;9.70;;
28447;SDS011;15675;52.870;-1.416;2023-05-10T04:58:20;26.33;;;10.07;;
28447;SDS011;15675;52.870;-1.416;2023-05-10T05:00:46;29.38;;;9.95;;
28447;SDS011;15675;52.870;-1.416;2023-05-10T05:03:12;27.08;;;9.48;;
28447;SDS011;15675;52.870;-1.416;2023-05-10T05:05:38;22.83;;;8.88;;
28447;SDS011;15675;52.870;-1.416;2023-05-10T05:08:04;20.75;;;8.63;;
28447;SDS011;15675;52.870;-1.416;2023-05-10T05:10:30;21.65;;;8.95;;
28447;SDS011;15675;52.870;-1.416;2023-05-10T05:12:56;22.85;;;8.73;;
28447;SDS011;15675;52.870;-1.416;2023-05-10T05:15:22;18.00;;;8.15;;
28447;SDS011;15675;52.870;-1.416;2023-05-10T05:17:48;25.38;;;8.82;;
28447;SDS011;15675;52.870;-1.416;2023-05-10T05:20:14;21.25;;;7.93;;
28447;SDS011;15675;52.870;-1.416;2023-05-10T05:22:39;18.92;;;7.25;;
28447;SDS011;15675;52.870;-1.416;2023-05-10T05:25:06;21.15;;;8.00;;
28447;SDS011;15675;52.870;-1.416;2023-05-10T05:27:32;21.40;;;8.45;;
28447;SDS011;15675;52.870;-1.416;2023-05-10T05:29:58;21.95;;;7.32;;
28447;SDS011;15675;52.870;-1.416;2023-05-10T05:32:24;19.77;;;7.72;;
28447;SDS011;15675;52.870;-1.416;2023-05-10T05:34:51;21.58;;;7.93;;
28447;SDS011;15675;52.870;-1.416;2023-05-10T05:37:18;22.95;;;7.70;;
28447;SDS011;15675;52.870;-1.416;2023-05-10T05:39:45;16.35;;;8.13;;
28447;SDS011;15675;52.870;-1.416;2023-05-10T05:42:11;24.60;;;7.20;;
28447;SDS011;15675;52.870;-1.416;2023-05-10T05:44:38;21.77;;;7.18;;
28447;SDS011;15675;52.870;-1.416;2023-05-10T05:47:04;24.58;;;7.13;;
28447;SDS011;15675;52.870;-1.416;2023-05-10T05:49:31;22.55;;;7.10;;
28447;SDS011;15675;52.870;-1.416;2023-05-10T05:51:59;17.98;;;6.13;;
28447;SDS011;15675;52.870;-1.416;2023-05-10T05:54:26;17.13;;;5.97;;
28447;SDS011;15675;52.870;-1.416;2023-05-10T05:56:54;18.73;;;6.80;;
28447;SDS011;15675;52.870;-1.416;2023-05-10T05:59:21;14.52;;;6.95;;
28447;SDS011;15675;52.870;-1.416;2023-05-10T06:01:47;14.05;;;6.05;;
28447;SDS011;15675;52.870;-1.416;2023-05-10T06:04:13;13.65;;;5.97;;
28447;SDS011;15675;52.870;-1.416;2023-05-10T06:06:38;16.48;;;6.38;;
28447;SDS011;15675;52.870;-1.416;2023-05-10T06:09:04;18.48;;;5.95;;
28447;SDS011;15675;52.870;-1.416;2023-05-10T06:11:30;12.18;;;6.15;;
28447;SDS011;15675;52.870;-1.416;2023-05-10T06:13:57;19.25;;;6.38;;
28447;SDS011;15675;52.870;-1.416;2023-05-10T06:16:24;19.85;;;5.88;;
28447;SDS011;15675;52.870;-1.416;2023-05-10T06:18:50;16.60;;;5.70;;
28447;SDS011;15675;52.870;-1.416;2023-05-10T06:21:16;11.23;;;5.50;;
28447;SDS011;15675;52.870;-1.416;2023-05-10T06:23:42;12.93;;;6.22;;
28447;SDS011;15675;52.870;-1.416;2023-05-10T06:26:09;19.08;;;5.50;;
28447;SDS011;15675;52.870;-1.416;2023-05-10T06:28:35;16.98;;;5.60;;
28447;SDS011;15675;52.870;-1.416;2023-05-10T06:31:03;12.45;;;5.25;;
28447;SDS011;15675;52.870;-1.416;2023-05-10T06:33:30;13.00;;;5.13;;
28447;SDS011;15675;52.870;-1.416;2023-05-10T06:35:56;14.98;;;4.88;;
28447;SDS011;15675;52.870;-1.416;2023-05-10T06:38:22;13.63;;;4.82;;
28447;SDS011;15675;52.870;-1.416;2023-05-10T06:40:48;10.57;;;4.80;;
28447;SDS011;15675;52.870;-1.416;2023-05-10T06:43:14;16.20;;;5.40;;
28447;SDS011;15675;52.870;-1.416;2023-05-10T06:45:40;14.40;;;4.65;;
28447;SDS011;15675;52.870;-1.416;2023-05-10T06:48:06;16.50;;;5.60;;
28447;SDS011;15675;52.870;-1.416;2023-05-10T06:50:33;11.43;;;4.82;;
28447;SDS011;15675;52.870;-1.416;2023-05-10T06:52:59;11.57;;;5.10;;
28447;SDS011;15675;52.870;-1.416;2023-05-10T06:55:25;16.65;;;5.15;;
28447;SDS011;15675;52.870;-1.416;2023-05-10T06:57:51;13.45;;;4.88;;
28447;SDS011;15675;52.870;-1.416;2023-05-10T07:00:18;11.60;;;5.00;;
28447;SDS011;15675;52.870;-1.416;2023-05-10T07:02:44;16.00;;;5.18;;
28447;SDS011;15675;52.870;-1.416;2023-05-10T07:05:10;13.98;;;5.05;;
28447;SDS011;15675;52.870;-1.416;2023-05-10T07:07:37;15.05;;;4.80;;
28447;SDS011;15675;52.870;-1.416;2023-05-10T07:10:03;14.15;;;4.70;;
28447;SDS011;15675;52.870;-1.416;2023-05-10T07:12:29;10.82;;;5.43;;
28447;SDS011;15675;52.870;-1.416;2023-05-10T07:14:55;13.25;;;4.70;;
28447;SDS011;15675;52.870;-1.416;2023-05-10T07:17:21;12.23;;;5.47;;
28447;SDS011;15675;52.870;-1.416;2023-05-10T07:19:47;19.88;;;5.25;;
28447;SDS011;15675;52.870;-1.416;2023-05-10T07:22:14;15.48;;;5.70;;
28447;SDS011;15675;52.870;-1.416;2023-05-10T07:24:40;17.13;;;5.72;;
28447;SDS011;15675;52.870;-1.416;2023-05-10T07:27:06;19.92;;;5.43;;
28447;SDS011;15675;52.870;-1.416;2023-05-10T07:29:32;14.82;;;4.93;;
28447;SDS011;15675;52.870;-1.416;2023-05-10T07:31:58;14.93;;;5.15;;
28447;SDS011;15675;52.870;-1.416;2023-05-10T07:34:24;12.50;;;4.90;;
28447;SDS011;15675;52.870;-1.416;2023-05-10T07:36:50;20.13;;;5.63;;
28447;SDS011;15675;52.870;-1.416;2023-05-10T07:39:16;14.32;;;5.60;;
28447;SDS011;15675;52.870;-1.416;2023-05-10T07:41:42;11.57;;;5.18;;
28447;SDS011;15675;52.870;-1.416;2023-05-10T07:44:08;11.77;;;5.95;;
28447;SDS011;15675;52.870;-1.416;2023-05-10T07:46:34;13.38;;;5.13;;
28447;SDS011;15675;52.870;-1.416;2023-05-10T07:49:00;12.85;;;5.03;;
28447;SDS011;15675;52.870;-1.416;2023-05-10T07:51:26;17.55;;;6.28;;
28447;SDS011;15675;52.870;-1.416;2023-05-10T07:53:53;12.05;;;4.95;;
28447;SDS011;15675;52.870;-1.416;2023-05-10T07:56:21;11.13;;;4.85;;
28447;SDS011;15675;52.870;-1.416;2023-05-10T07:58:52;12.98;;;5.40;;
28447;SDS011;15675;52.870;-1.416;2023-05-10T08:01:19;14.15;;;5.75;;
28447;SDS011;15675;52.870;-1.416;2023-05-10T08:03:45;15.35;;;5.53;;
28447;SDS011;15675;52.870;-1.416;2023-05-10T08:06:11;9.68;;;5.13;;
28447;SDS011;15675;52.870;-1.416;2023-05-10T08:08:37;15.43;;;5.00;;
28447;SDS011;15675;52.870;-1.416;2023-05-10T08:11:03;9.80;;;4.93;;
28447;SDS011;15675;52.870;-1.416;2023-05-10T08:13:29;12.35;;;4.65;;
28447;SDS011;15675;52.870;-1.416;2023-05-10T08:15:56;13.32;;;6.22;;
28447;SDS011;15675;52.870;-1.416;2023-05-10T08:18:22;19.05;;;6.38;;
28447;SDS011;15675;52.870;-1.416;2023-05-10T08:20:48;17.25;;;5.47;;
28447;SDS011;15675;52.870;-1.416;2023-05-10T08:23:14;13.77;;;5.05;;
28447;SDS011;15675;52.870;-1.416;2023-05-10T08:25:40;15.02;;;4.90;;
28447;SDS011;15675;52.870;-1.416;2023-05-10T08:28:06;12.02;;;5.10;;
28447;SDS011;15675;52.870;-1.416;2023-05-10T08:30:32;18.02;;;5.20;;
28447;SDS011;15675;52.870;-1.416;2023-05-10T08:32:58;13.65;;;5.35;;
28447;SDS011;15675;52.870;-1.416;2023-05-10T08:35:24;16.38;;;5.13;;
28447;SDS011;15675;52.870;-1.416;2023-05-10T08:37:50;13.77;;;4.07;;
28447;SDS011;15675;52.870;-1.416;2023-05-10T08:40:16;11.88;;;4.20;;
28447;SDS011;15675;52.870;-1.416;2023-05-10T08:42:51;10.35;;;4.30;;
28447;SDS011;15675;52.870;-1.416;2023-05-10T08:45:24;10.93;;;3.83;;
28447;SDS011;15675;52.870;-1.416;2023-05-10T08:47:53;9.23;;;3.78;;
28447;SDS011;15675;52.870;-1.416;2023-05-10T08:50:19;9.80;;;3.63;;
28447;SDS011;15675;52.870;-1.416;2023-05-10T08:52:47;9.50;;;3.70;;
28447;SDS011;15675;52.870;-1.416;2023-05-10T08:55:16;9.95;;;3.40;;
28447;SDS011;15675;52.870;-1.416;2023-05-10T08:57:42;14.20;;;3.70;;
28447;SDS011;15675;52.870;-1.416;2023-05-10T09:00:08;8.77;;;2.60;;
28447;SDS011;15675;52.870;-1.416;2023-05-10T09:02:35;13.20;;;3.58;;
28447;SDS011;15675;52.870;-1.416;2023-05-10T09:05:02;11.02;;;2.80;;
28447;SDS011;15675;52.870;-1.416;2023-05-10T09:07:30;8.13;;;2.65;;
28447;SDS011;15675;52.870;-1.416;2023-05-10T09:09:56;13.43;;;2.67;;
28447;SDS011;15675;52.870;-1.416;2023-05-10T09:12:23;13.00;;;2.80;;
28447;SDS011;15675;52.870;-1.416;2023-05-10T09:14:49;10.55;;;3.13;;
28447;SDS011;15675;52.870;-1.416;2023-05-10T09:17:17;10.30;;;2.40;;
28447;SDS011;15675;52.870;-1.416;2023-05-10T09:19:44;13.30;;;3.28;;
28447;SDS011;15675;52.870;-1.416;2023-05-10T09:22:10;7.50;;;2.28;;
28447;SDS011;15675;52.870;-1.416;2023-05-10T09:24:36;12.23;;;2.50;;
28447;SDS011;15675;52.870;-1.416;2023-05-10T09:27:07;9.27;;;2.63;;
28447;SDS011;15675;52.870;-1.416;2023-05-10T09:29:49;6.93;;;2.03;;
28447;SDS011;15675;52.870;-1.416;2023-05-10T09:32:19;11.13;;;2.55;;
28447;SDS011;15675;52.870;-1.416;2023-05-10T09:34:45;6.68;;;2.28;;
28447;SDS011;15675;52.870;-1.416;2023-05-10T09:37:14;8.13;;;1.83;;
28447;SDS011;15675;52.870;-1.416;2023-05-10T09:39:40;6.07;;;2.10;;
28447;SDS011;15675;52.870;-1.416;2023-05-10T09:42:07;5.97;;;1.80;;
28447;SDS011;15675;52.870;-1.416;2023-05-10T09:44:34;11.20;;;1.80;;
28447;SDS011;15675;52.870;-1.416;2023-05-10T09:47:01;7.38;;;1.65;;
28447;SDS011;15675;52.870;-1.416;2023-05-10T09:49:28;8.35;;;2.13;;
28447;SDS011;15675;52.870;-1.416;2023-05-10T09:51:59;9.95;;;2.05;;
28447;SDS011;15675;52.870;-1.416;2023-05-10T09:54:26;3.80;;;1.75;;
28447;SDS011;15675;52.870;-1.416;2023-05-10T09:56:52;5.68;;;2.22;;
28447;SDS011;15675;52.870;-1.416;2023-05-10T09:59:18;11.65;;;2.42;;
28447;SDS011;15675;52.870;-1.416;2023-05-10T10:01:52;7.43;;;2.15;;
28447;SDS011;15675;52.870;-1.416;2023-05-10T10:04:20;9.82;;;2.63;;
28447;SDS011;15675;52.870;-1.416;2023-05-10T10:06:47;12.73;;;2.13;;
28447;SDS011;15675;52.870;-1.416;2023-05-10T10:09:24;8.38;;;1.90;;
28447;SDS011;15675;52.870;-1.416;2023-05-10T10:11:51;12.30;;;2.38;;
28447;SDS011;15675;52.870;-1.416;2023-05-10T10:14:18;7.82;;;2.22;;
28447;SDS011;15675;52.870;-1.416;2023-05-10T10:16:44;7.55;;;1.83;;
28447;SDS011;15675;52.870;-1.416;2023-05-10T10:19:10;6.93;;;2.00;;
28447;SDS011;15675;52.870;-1.416;2023-05-10T10:21:37;10.50;;;2.10;;
28447;SDS011;15675;52.870;-1.416;2023-05-10T10:24:03;9.73;;;2.13;;
28447;SDS011;15675;52.870;-1.416;2023-05-10T10:26:32;10.80;;;2.60;;
28447;SDS011;15675;52.870;-1.416;2023-05-10T10:29:07;8.52;;;2.40;;
28447;SDS011;15675;52.870;-1.416;2023-05-10T10:31:57;11.50;;;2.50;;
28447;SDS011;15675;52.870;-1.416;2023-05-10T10:34:45;5.05;;;1.88;;
28447;SDS011;15675;52.870;-1.416;2023-05-10T10:37:12;5.18;;;1.90;;
28447;SDS011;15675;52.870;-1.416;2023-05-10T10:39:38;8.02;;;2.17;;
28447;SDS011;15675;52.870;-1.416;2023-05-10T10:42:04;6.70;;;2.30;;
28447;SDS011;15675;52.870;-1.416;2023-05-10T10:44:37;8.15;;;2.33;;
28447;SDS011;15675;52.870;-1.416;2023-05-10T10:47:07;4.88;;;2.33;;
28447;SDS011;15675;52.870;-1.416;2023-05-10T10:50:02;8.43;;;2.30;;
28447;SDS011;15675;52.870;-1.416;2023-05-10T10:52:32;8.50;;;2.60;;
28447;SDS011;15675;52.870;-1.416;2023-05-10T10:55:08;7.05;;;2.08;;
28447;SDS011;15675;52.870;-1.416;2023-05-10T10:57:42;5.88;;;2.40;;
28447;SDS011;15675;52.870;-1.416;2023-05-10T11:00:27;8.52;;;2.53;;
28447;SDS011;15675;52.870;-1.416;2023-05-10T11:02:59;7.10;;;2.47;;
28447;SDS011;15675;52.870;-1.416;2023-05-10T11:05:35;6.18;;;2.25;;
28447;SDS011;15675;52.870;-1.416;2023-05-10T11:08:25;8.63;;;2.50;;
28447;SDS011;15675;52.870;-1.416;2023-05-10T11:11:06;9.52;;;2.13;;
28447;SDS011;15675;52.870;-1.416;2023-05-10T11:13:34;6.80;;;2.00;;
28447;SDS011;15675;52.870;-1.416;2023-05-10T11:18:53;7.97;;;1.63;;
28447;SDS011;15675;52.870;-1.416;2023-05-10T11:21:24;7.97;;;2.08;;
28447;SDS011;15675;52.870;-1.416;2023-05-10T11:23:51;6.28;;;2.17;;
28447;SDS011;15675;52.870;-1.416;2023-05-10T11:26:21;7.03;;;2.20;;
28447;SDS011;15675;52.870;-1.416;2023-05-10T11:28:52;9.15;;;2.40;;
28447;SDS011;15675;52.870;-1.416;2023-05-10T11:31:20;7.90;;;2.47;;
28447;SDS011;15675;52.870;-1.416;2023-05-10T11:33:49;5.40;;;2.20;;
28447;SDS011;15675;52.870;-1.416;2023-05-10T11:36:18;7.65;;;2.88;;
28447;SDS011;15675;52.870;-1.416;2023-05-10T11:38:45;14.02;;;2.70;;
28447;SDS011;15675;52.870;-1.416;2023-05-10T11:41:12;4.75;;;2.08;;
28447;SDS011;15675;52.870;-1.416;2023-05-10T11:43:39;8.85;;;2.25;;
28447;SDS011;15675;52.870;-1.416;2023-05-10T11:46:13;5.95;;;2.10;;
28447;SDS011;15675;52.870;-1.416;2023-05-10T11:48:39;8.48;;;2.40;;
28447;SDS011;15675;52.870;-1.416;2023-05-10T11:51:06;7.03;;;2.08;;
28447;SDS011;15675;52.870;-1.416;2023-05-10T11:53:33;7.53;;;2.17;;
28447;SDS011;15675;52.870;-1.416;2023-05-10T11:56:07;8.80;;;1.55;;
28447;SDS011;15675;52.870;-1.416;2023-05-10T11:58:35;6.55;;;1.85;;
28447;SDS011;15675;52.870;-1.416;2023-05-10T12:01:02;4.90;;;1.85;;
28447;SDS011;15675;52.870;-1.416;2023-05-10T12:03:29;5.50;;;2.00;;
28447;SDS011;15675;52.870;-1.416;2023-05-10T12:05:56;4.40;;;1.60;;
28447;SDS011;15675;52.870;-1.416;2023-05-10T12:08:23;4.78;;;1.50;;
28447;SDS011;15675;52.870;-1.416;2023-05-10T12:10:52;5.68;;;1.80;;
28447;SDS011;15675;52.870;-1.416;2023-05-10T12:13:19;5.03;;;1.60;;
28447;SDS011;15675;52.870;-1.416;2023-05-10T12:15:46;10.10;;;2.08;;
28447;SDS011;15675;52.870;-1.416;2023-05-10T12:18:12;5.45;;;1.60;;
28447;SDS011;15675;52.870;-1.416;2023-05-10T12:20:39;4.25;;;2.22;;
28447;SDS011;15675;52.870;-1.416;2023-05-10T12:23:07;15.90;;;2.17;;
28447;SDS011;15675;52.870;-1.416;2023-05-10T12:25:36;3.25;;;2.05;;
28447;SDS011;15675;52.870;-1.416;2023-05-10T12:28:03;5.47;;;1.67;;
28447;SDS011;15675;52.870;-1.416;2023-05-10T12:30:32;6.20;;;1.83;;
28447;SDS011;15675;52.870;-1.416;2023-05-10T12:33:02;2.65;;;1.25;;
28447;SDS011;15675;52.870;-1.416;2023-05-10T12:35:52;4.95;;;1.10;;
28447;SDS011;15675;52.870;-1.416;2023-05-10T12:38:37;5.40;;;1.10;;
28447;SDS011;15675;52.870;-1.416;2023-05-10T12:41:08;6.10;;;1.45;;
28447;SDS011;15675;52.870;-1.416;2023-05-10T12:43:35;3.78;;;1.50;;
28447;SDS011;15675;52.870;-1.416;2023-05-10T12:46:17;1.75;;;1.17;;
28447;SDS011;15675;52.870;-1.416;2023-05-10T12:48:44;3.43;;;1.23;;
28447;SDS011;15675;52.870;-1.416;2023-05-10T12:51:11;2.58;;;1.13;;
28447;SDS011;15675;52.870;-1.416;2023-05-10T12:53:40;2.60;;;0.90;;
28447;SDS011;15675;52.870;-1.416;2023-05-10T12:56:06;2.30;;;0.88;;
28447;SDS011;15675;52.870;-1.416;2023-05-10T12:58:32;2.85;;;1.00;;
28447;SDS011;15675;52.870;-1.416;2023-05-10T13:00:59;3.80;;;0.90;;
28447;SDS011;15675;52.870;-1.416;2023-05-10T13:03:25;1.52;;;0.63;;
28447;SDS011;15675;52.870;-1.416;2023-05-10T13:05:51;3.03;;;0.80;;
28447;SDS011;15675;52.870;-1.416;2023-05-10T13:08:17;1.15;;;0.63;;
28447;SDS011;15675;52.870;-1.416;2023-05-10T13:10:43;3.08;;;0.63;;
28447;SDS011;15675;52.870;-1.416;2023-05-10T13:13:09;4.68;;;0.75;;
28447;SDS011;15675;52.870;-1.416;2023-05-10T13:15:35;2.67;;;0.80;;
28447;SDS011;15675;52.870;-1.416;2023-05-10T13:18:01;2.72;;;0.80;;
28447;SDS011;15675;52.870;-1.416;2023-05-10T13:20:27;3.00;;;1.00;;
28447;SDS011;15675;52.870;-1.416;2023-05-10T13:22:53;3.22;;;1.00;;
28447;SDS011;15675;52.870;-1.416;2023-05-10T13:25:19;2.67;;;1.10;;
28447;SDS011;15675;52.870;-1.416;2023-05-10T13:27:45;3.42;;;1.20;;
28447;SDS011;15675;52.870;-1.416;2023-05-10T13:30:11;6.70;;;1.13;;
28447;SDS011;15675;52.870;-1.416;2023-05-10T13:32:37;5.15;;;0.98;;
28447;SDS011;15675;52.870;-1.416;2023-05-10T13:35:04;1.92;;;0.60;;
28447;SDS011;15675;52.870;-1.416;2023-05-10T13:37:30;3.25;;;0.57;;
28447;SDS011;15675;52.870;-1.416;2023-05-10T13:39:57;1.30;;;0.70;;
28447;SDS011;15675;52.870;-1.416;2023-05-10T13:42:23;4.30;;;1.13;;
28447;SDS011;15675;52.870;-1.416;2023-05-10T13:44:49;1.20;;;0.80;;
28447;SDS011;15675;52.870;-1.416;2023-05-10T13:47:15;2.72;;;0.90;;
28447;SDS011;15675;52.870;-1.416;2023-05-10T13:49:41;2.95;;;0.90;;
28447;SDS011;15675;52.870;-1.416;2023-05-10T13:52:07;3.33;;;1.00;;
28447;SDS011;15675;52.870;-1.416;2023-05-10T13:54:35;3.60;;;0.90;;
28447;SDS011;15675;52.870;-1.416;2023-05-10T13:57:02;2.30;;;0.90;;
28447;SDS011;15675;52.870;-1.416;2023-05-10T13:59:28;3.70;;;1.20;;
28447;SDS011;15675;52.870;-1.416;2023-05-10T14:01:57;2.80;;;1.00;;
28447;SDS011;15675;52.870;-1.416;2023-05-10T14:04:23;3.30;;;1.17;;
28447;SDS011;15675;52.870;-1.416;2023-05-10T14:06:49;2.35;;;1.00;;
28447;SDS011;15675;52.870;-1.416;2023-05-10T14:09:16;1.58;;;0.80;;
28447;SDS011;15675;52.870;-1.416;2023-05-10T14:11:42;2.10;;;1.15;;
28447;SDS011;15675;52.870;-1.416;2023-05-10T14:14:08;3.97;;;0.98;;
28447;SDS011;15675;52.870;-1.416;2023-05-10T14:16:34;2.25;;;0.70;;
28447;SDS011;15675;52.870;-1.416;2023-05-10T14:19:00;2.10;;;1.15;;
28447;SDS011;15675;52.870;-1.416;2023-05-10T14:21:27;2.53;;;0.95;;
28447;SDS011;15675;52.870;-1.416;2023-05-10T14:23:55;4.18;;;0.90;;
28447;SDS011;15675;52.870;-1.416;2023-05-10T14:26:21;3.47;;;0.90;;
28447;SDS011;15675;52.870;-1.416;2023-05-10T14:28:47;3.35;;;1.88;;
28447;SDS011;15675;52.870;-1.416;2023-05-10T14:31:13;2.13;;;1.40;;
28447;SDS011;15675;52.870;-1.416;2023-05-10T14:33:40;2.85;;;2.08;;
28447;SDS011;15675;52.870;-1.416;2023-05-10T14:36:06;1.65;;;1.15;;
28447;SDS011;15675;52.870;-1.416;2023-05-10T14:38:33;3.35;;;1.05;;
28447;SDS011;15675;52.870;-1.416;2023-05-10T14:40:59;2.17;;;1.00;;
28447;SDS011;15675;52.870;-1.416;2023-05-10T14:43:25;1.00;;;0.68;;
28447;SDS011;15675;52.870;-1.416;2023-05-10T14:45:52;2.90;;;0.90;;
28447;SDS011;15675;52.870;-1.416;2023-05-10T14:48:18;2.33;;;0.80;;
28447;SDS011;15675;52.870;-1.416;2023-05-10T14:50:44;3.80;;;0.90;;